Time;durP1;ratioP1;P1;durP2;ratioP2;P2;SDS_P1;SDS_P2;PMS_P1;PMS_P2;Temp;Humidity;BMP_temperature;BMP_pressure;BME280_temperature;BME280_humidity;BME280_pressure;Samples;Min_cycle;Max_cycle;Signal;HPM_P1;HPM_P2
2022/10/15 00:01:11;;;;;;;10.47;6.10;;;7.90;99.90;;;;;;5075335;28;20205;-68
2022/10/15 00:03:38;;;;;;;8.57;5.50;;;7.90;99.90;;;;;;5075047;28;20570;-68
2022/10/15 00:06:07;;;;;;;10.73;5.70;;;7.90;99.90;;;;;;5092453;28;20200;-68
2022/10/15 00:08:36;;;;;;;10.13;5.70;;;7.90;99.90;;;;;;5095113;28;20204;-68
2022/10/15 00:11:05;;;;;;;10.80;5.77;;;8.00;99.90;;;;;;5095548;28;20208;-70
2022/10/15 00:13:32;;;;;;;8.03;5.50;;;8.00;99.90;;;;;;5085296;28;20216;-70
2022/10/15 00:16:00;;;;;;;9.13;5.57;;;8.00;99.90;;;;;;5075528;28;20791;-67
2022/10/15 00:18:26;;;;;;;9.57;5.70;;;8.00;99.90;;;;;;5075166;28;20560;-68
2022/10/15 00:20:53;;;;;;;9.53;5.60;;;8.00;99.90;;;;;;5075154;28;20211;-69
2022/10/15 00:23:20;;;;;;;9.93;5.63;;;8.00;99.90;;;;;;5074446;28;20224;-68
2022/10/15 00:25:48;;;;;;;10.90;5.90;;;8.00;99.90;;;;;;5074763;28;20290;-68
2022/10/15 00:28:15;;;;;;;10.87;5.97;;;8.00;99.90;;;;;;5075353;28;20216;-69
2022/10/15 00:30:42;;;;;;;11.33;6.07;;;8.10;99.90;;;;;;5075538;28;20215;-68
2022/10/15 00:33:09;;;;;;;9.90;5.90;;;8.10;99.90;;;;;;5075088;28;20204;-68
2022/10/15 00:35:35;;;;;;;11.43;6.40;;;8.10;99.90;;;;;;5074620;28;20211;-69
2022/10/15 00:38:02;;;;;;;10.63;6.70;;;8.10;99.90;;;;;;5075052;28;20209;-69
2022/10/15 00:40:29;;;;;;;10.83;6.17;;;8.10;99.90;;;;;;5074337;28;20216;-69
2022/10/15 00:42:57;;;;;;;10.70;6.00;;;8.10;99.90;;;;;;5074495;28;20231;-68
2022/10/15 00:45:24;;;;;;;12.00;6.00;;;8.10;99.90;;;;;;5083812;28;20539;-68
2022/10/15 00:47:52;;;;;;;10.67;6.50;;;8.10;99.90;;;;;;5086506;28;20210;-69
2022/10/15 00:50:21;;;;;;;11.30;6.23;;;8.10;99.90;;;;;;5079023;28;20230;-68
2022/10/15 00:52:59;;;;;;;10.23;6.20;;;8.10;99.90;;;;;;5072894;28;20561;-68
2022/10/15 00:55:30;;;;;;;10.57;5.67;;;8.10;99.90;;;;;;5074135;28;20185;-68
2022/10/15 00:58:00;;;;;;;11.93;6.20;;;8.10;99.90;;;;;;5074525;28;20199;-68
2022/10/15 01:00:27;;;;;;;11.73;6.57;;;8.10;99.90;;;;;;5074227;28;20197;-68
2022/10/15 01:02:54;;;;;;;13.33;6.63;;;8.10;99.90;;;;;;5073555;28;20235;-69
2022/10/15 01:05:22;;;;;;;11.10;6.73;;;8.10;99.90;;;;;;5074198;28;20550;-69
2022/10/15 01:07:48;;;;;;;8.43;5.80;;;8.20;99.90;;;;;;5073030;28;20205;-69
2022/10/15 01:10:17;;;;;;;9.40;5.77;;;8.10;99.90;;;;;;5073260;28;20207;-68
2022/10/15 01:12:56;;;;;;;11.13;6.30;;;8.20;99.90;;;;;;5074202;28;20197;-68
2022/10/15 01:15:29;;;;;;;11.30;6.03;;;8.10;99.90;;;;;;5073796;28;20189;-69
2022/10/15 01:18:01;;;;;;;11.23;6.50;;;8.10;99.90;;;;;;5073767;28;20189;-68
2022/10/15 01:20:58;;;;;;;10.47;6.07;;;8.20;99.90;;;;;;5073568;28;20193;-69
2022/10/15 01:24:05;;;;;;;9.17;5.70;;;8.20;99.90;;;;;;5074653;28;20220;-70
2022/10/15 01:27:02;;;;;;;11.13;5.87;;;8.20;99.90;;;;;;5094054;28;20188;-69
2022/10/15 01:29:48;;;;;;;11.17;6.40;;;8.10;99.90;;;;;;5069612;28;20209;-68
2022/10/15 01:32:23;;;;;;;11.87;6.03;;;8.10;99.90;;;;;;5073582;28;20192;-68
2022/10/15 01:34:56;;;;;;;12.43;6.40;;;8.10;99.90;;;;;;5073825;28;20189;-69
2022/10/15 01:37:32;;;;;;;10.97;6.07;;;8.00;99.90;;;;;;5073122;28;20196;-68
2022/10/15 01:40:05;;;;;;;9.93;5.87;;;8.00;99.90;;;;;;5073696;28;20189;-68
2022/10/15 01:42:38;;;;;;;9.67;6.30;;;8.00;99.90;;;;;;5073180;28;20568;-68
2022/10/15 01:45:09;;;;;;;10.40;5.93;;;7.90;99.90;;;;;;5073608;28;20627;-67
2022/10/15 01:47:43;;;;;;;9.00;5.97;;;7.90;99.90;;;;;;5073486;28;20627;-69
2022/10/15 01:50:12;;;;;;;11.47;6.37;;;7.90;99.90;;;;;;5073172;28;20511;-68
2022/10/15 01:52:42;;;;;;;14.23;6.57;;;7.90;99.90;;;;;;5073239;28;20658;-68
2022/10/15 01:55:13;;;;;;;10.93;6.40;;;7.90;99.90;;;;;;5073157;28;20317;-69
2022/10/15 01:57:43;;;;;;;11.57;6.83;;;7.90;99.90;;;;;;5080261;28;20200;-68
2022/10/15 02:00:11;;;;;;;12.70;6.87;;;7.80;99.90;;;;;;5092876;28;20208;-68
2022/10/15 02:02:39;;;;;;;11.97;7.30;;;7.80;99.90;;;;;;5093351;28;20208;-68
2022/10/15 02:05:11;;;;;;;13.00;7.00;;;7.80;99.90;;;;;;5093220;28;20690;-68
2022/10/15 02:07:44;;;;;;;11.47;6.67;;;7.80;99.90;;;;;;5093365;28;20215;-68
2022/10/15 02:10:19;;;;;;;10.13;6.73;;;7.80;99.90;;;;;;5092805;28;20188;-68
2022/10/15 02:12:58;;;;;;;12.27;6.63;;;7.80;99.90;;;;;;5091674;28;20207;-68
2022/10/15 02:15:34;;;;;;;12.70;6.63;;;7.80;99.90;;;;;;5092103;28;20192;-68
2022/10/15 02:18:06;;;;;;;13.47;6.73;;;7.90;99.90;;;;;;5093072;28;20195;-68
2022/10/15 02:20:40;;;;;;;10.80;6.63;;;7.90;99.90;;;;;;5093290;28;20529;-68
2022/10/15 02:23:13;;;;;;;10.43;6.50;;;7.90;99.90;;;;;;5090665;28;20260;-67
2022/10/15 02:25:41;;;;;;;13.27;6.87;;;7.90;99.90;;;;;;5092789;28;20240;-69
2022/10/15 02:28:09;;;;;;;11.93;6.40;;;7.90;99.90;;;;;;5092534;28;20291;-68
2022/10/15 02:30:39;;;;;;;10.93;6.17;;;8.00;99.90;;;;;;5080018;28;20212;-68
2022/10/15 02:33:08;;;;;;;11.43;6.33;;;7.90;99.90;;;;;;5071797;28;20201;-68
2022/10/15 02:35:36;;;;;;;9.57;5.93;;;8.00;99.90;;;;;;5072095;28;20205;-68
2022/10/15 02:38:06;;;;;;;9.43;5.73;;;8.00;99.90;;;;;;5072370;28;20212;-66
2022/10/15 02:40:35;;;;;;;12.27;6.00;;;8.00;99.90;;;;;;5072218;28;20231;-68
2022/10/15 02:43:05;;;;;;;9.73;5.90;;;8.00;99.90;;;;;;5071777;28;20220;-69
2022/10/15 02:45:32;;;;;;;9.50;5.70;;;8.00;99.90;;;;;;5084033;28;20211;-68
2022/10/15 02:47:59;;;;;;;10.30;6.00;;;8.00;99.90;;;;;;5092751;28;20211;-68
2022/10/15 02:50:27;;;;;;;7.33;5.23;;;8.10;99.90;;;;;;5092337;28;20208;-68
2022/10/15 02:52:54;;;;;;;9.73;5.90;;;8.10;99.90;;;;;;5092552;28;20200;-67
2022/10/15 02:55:21;;;;;;;11.60;5.93;;;8.10;99.90;;;;;;5091930;28;20211;-68
2022/10/15 02:57:48;;;;;;;9.07;5.73;;;8.00;99.90;;;;;;5092427;28;20203;-68
2022/10/15 03:00:15;;;;;;;10.23;5.53;;;8.00;99.90;;;;;;5078923;28;20543;-68
2022/10/15 03:02:42;;;;;;;9.00;5.60;;;8.00;99.90;;;;;;5071812;28;20208;-68
2022/10/15 03:05:09;;;;;;;9.27;6.10;;;8.00;99.90;;;;;;5071490;28;20228;-70
2022/10/15 03:07:37;;;;;;;11.27;6.10;;;8.00;99.90;;;;;;5072104;28;20573;-68
2022/10/15 03:10:06;;;;;;;10.30;6.10;;;8.00;99.90;;;;;;5071883;28;20209;-67
2022/10/15 03:12:33;;;;;;;11.30;5.90;;;8.00;99.90;;;;;;5072158;28;20215;-68
2022/10/15 03:14:59;;;;;;;12.83;6.57;;;8.00;99.90;;;;;;5070575;28;20197;-67
2022/10/15 03:17:26;;;;;;;9.13;5.97;;;8.00;99.90;;;;;;5071803;28;20204;-66
2022/10/15 03:19:53;;;;;;;10.80;6.20;;;8.00;99.90;;;;;;5071758;28;20211;-68
2022/10/15 03:22:20;;;;;;;9.80;5.97;;;8.00;99.90;;;;;;5072012;28;20512;-68
2022/10/15 03:24:48;;;;;;;10.93;6.30;;;8.00;99.90;;;;;;5071735;28;20596;-69
2022/10/15 03:27:15;;;;;;;9.13;5.90;;;8.00;99.90;;;;;;5071452;28;20209;-67
2022/10/15 03:29:42;;;;;;;9.83;6.13;;;8.00;99.90;;;;;;5071901;28;20571;-68
2022/10/15 03:32:08;;;;;;;12.27;6.47;;;7.90;99.90;;;;;;5073584;28;20237;-69
2022/10/15 03:34:35;;;;;;;11.17;6.03;;;7.90;99.90;;;;;;5091911;28;20200;-67
2022/10/15 03:37:02;;;;;;;10.37;5.87;;;7.90;99.90;;;;;;5091621;28;20208;-68
2022/10/15 03:39:29;;;;;;;9.93;5.87;;;7.90;99.90;;;;;;5091892;28;20674;-68
2022/10/15 03:41:57;;;;;;;9.03;6.00;;;7.90;99.90;;;;;;5091373;28;20223;-67
2022/10/15 03:44:24;;;;;;;9.90;6.27;;;7.90;99.90;;;;;;5091667;28;20684;-67
2022/10/15 03:46:50;;;;;;;10.47;6.17;;;7.90;99.90;;;;;;5090057;28;20200;-66
2022/10/15 03:49:17;;;;;;;12.30;5.87;;;7.90;99.90;;;;;;5091610;28;20200;-68
2022/10/15 03:51:44;;;;;;;11.37;5.97;;;7.90;99.90;;;;;;5091865;28;20631;-67
2022/10/15 03:54:11;;;;;;;10.67;5.83;;;7.90;99.90;;;;;;5091631;28;20200;-68
2022/10/15 03:56:38;;;;;;;9.93;5.80;;;7.90;99.90;;;;;;5091659;28;20212;-68
2022/10/15 03:59:06;;;;;;;11.47;6.27;;;7.90;99.90;;;;;;5083337;28;20211;-68
2022/10/15 04:01:32;;;;;;;11.63;5.57;;;7.90;99.90;;;;;;5071195;28;20205;-67
2022/10/15 04:03:59;;;;;;;8.37;5.90;;;7.80;99.90;;;;;;5070923;28;20269;-68
2022/10/15 04:06:26;;;;;;;9.73;5.63;;;7.80;99.90;;;;;;5071471;28;20204;-67
2022/10/15 04:08:53;;;;;;;9.60;5.93;;;7.80;99.90;;;;;;5070281;28;20212;-69
2022/10/15 04:11:19;;;;;;;11.20;5.80;;;7.80;99.90;;;;;;5089078;28;20307;-68
2022/10/15 04:13:49;;;;;;;11.33;5.83;;;7.80;99.90;;;;;;5091317;28;20232;-67
2022/10/15 04:16:18;;;;;;;18.33;9.50;;;7.80;99.90;;;;;;5091733;28;20208;-69
2022/10/15 04:18:44;;;;;;;15.63;8.00;;;7.80;99.90;;;;;;5091544;28;20200;-69
2022/10/15 04:21:11;;;;;;;11.87;7.93;;;7.80;99.90;;;;;;5091172;28;20200;-68
2022/10/15 04:23:38;;;;;;;13.07;7.67;;;7.80;99.90;;;;;;5089890;28;20204;-70
2022/10/15 04:26:05;;;;;;;10.53;5.70;;;7.80;99.90;;;;;;5091379;28;20188;-69
2022/10/15 04:28:33;;;;;;;12.43;6.60;;;7.80;99.90;;;;;;5091825;28;20609;-68
2022/10/15 04:31:01;;;;;;;12.63;6.23;;;7.80;99.90;;;;;;5091514;28;20215;-70
2022/10/15 04:33:29;;;;;;;11.33;6.10;;;7.70;99.90;;;;;;5091403;28;20249;-68
2022/10/15 04:36:00;;;;;;;15.53;7.33;;;7.80;99.90;;;;;;5090765;28;20208;-67
2022/10/15 04:38:27;;;;;;;20.97;7.30;;;7.70;99.90;;;;;;5091021;28;20204;-67
2022/10/15 04:41:01;;;;;;;13.23;6.90;;;7.70;99.90;;;;;;5095162;28;20311;-68
2022/10/15 04:43:29;;;;;;;17.57;7.40;;;7.70;99.90;;;;;;5094817;28;20698;-69
2022/10/15 04:45:57;;;;;;;14.03;6.73;;;7.70;99.90;;;;;;5094826;28;20230;-67
2022/10/15 04:48:24;;;;;;;13.40;6.20;;;7.60;99.90;;;;;;5095307;28;20204;-70
2022/10/15 04:50:53;;;;;;;11.77;6.30;;;7.60;99.90;;;;;;5094423;28;20253;-70
2022/10/15 04:53:19;;;;;;;9.77;5.70;;;7.60;99.90;;;;;;5093123;28;20218;-69
2022/10/15 04:55:46;;;;;;;12.07;6.33;;;7.60;99.90;;;;;;5094265;28;20220;-67
2022/10/15 04:58:13;;;;;;;12.57;6.53;;;7.60;99.90;;;;;;5094492;28;20204;-70
2022/10/15 05:00:40;;;;;;;10.03;7.00;;;7.60;99.90;;;;;;5094286;28;20212;-70
2022/10/15 05:03:07;;;;;;;10.07;7.37;;;7.60;99.90;;;;;;5092732;28;20231;-67
2022/10/15 05:05:34;;;;;;;13.33;8.13;;;7.60;99.90;;;;;;5093959;28;20234;-69
2022/10/15 05:08:03;;;;;;;10.80;7.20;;;7.70;99.90;;;;;;5092809;28;20219;-68
2022/10/15 05:10:30;;;;;;;10.33;5.90;;;7.70;99.90;;;;;;5072997;28;20209;-68
2022/10/15 05:12:57;;;;;;;10.23;6.57;;;7.70;99.90;;;;;;5073619;28;20227;-71
2022/10/15 05:15:25;;;;;;;13.50;7.63;;;7.70;99.90;;;;;;5074563;28;20222;-69
2022/10/15 05:17:52;;;;;;;18.40;10.40;;;7.80;99.90;;;;;;5071520;28;20208;-69
2022/10/15 05:20:19;;;;;;;18.87;13.37;;;7.80;99.90;;;;;;5074388;28;20209;-70
2022/10/15 05:22:46;;;;;;;18.60;13.30;;;7.80;99.90;;;;;;5073562;28;20205;-69
2022/10/15 05:25:14;;;;;;;22.10;14.30;;;7.80;99.90;;;;;;5081783;28;20236;-69
2022/10/15 05:27:41;;;;;;;22.00;15.80;;;7.80;99.90;;;;;;5093751;28;20226;-68
2022/10/15 05:30:08;;;;;;;26.37;20.03;;;7.80;99.90;;;;;;5093210;28;20200;-70
2022/10/15 05:32:35;;;;;;;29.33;21.27;;;7.90;99.90;;;;;;5092489;28;20208;-70
2022/10/15 05:35:02;;;;;;;30.23;23.60;;;7.90;99.90;;;;;;5084734;28;20200;-68
2022/10/15 05:37:29;;;;;;;28.87;20.87;;;8.00;99.90;;;;;;5093026;28;20208;-69
2022/10/15 05:39:56;;;;;;;30.03;20.30;;;8.10;99.90;;;;;;5089244;28;20593;-69
2022/10/15 05:42:24;;;;;;;25.37;19.97;;;8.10;99.90;;;;;;5076654;28;20687;-70
2022/10/15 05:44:50;;;;;;;24.37;16.63;;;8.10;99.90;;;;;;5093398;28;20220;-68
2022/10/15 05:47:17;;;;;;;19.73;14.33;;;8.20;99.90;;;;;;5075256;28;20200;-69
2022/10/15 05:49:44;;;;;;;19.37;12.87;;;8.10;99.90;;;;;;5072742;28;20211;-70
2022/10/15 05:52:11;;;;;;;14.47;9.97;;;8.20;99.90;;;;;;5072327;28;20216;-69
2022/10/15 05:54:37;;;;;;;18.43;13.13;;;8.30;99.90;;;;;;5073102;28;20200;-69
2022/10/15 05:57:04;;;;;;;19.27;14.67;;;8.30;99.90;;;;;;5073176;28;20214;-69
2022/10/15 05:59:32;;;;;;;19.20;13.50;;;8.30;99.90;;;;;;5089657;28;20268;-70
2022/10/15 06:01:59;;;;;;;17.63;11.63;;;8.40;99.90;;;;;;5093493;28;20563;-70
2022/10/15 06:04:26;;;;;;;11.33;8.17;;;8.50;99.90;;;;;;5087481;28;20217;-71
2022/10/15 06:06:53;;;;;;;11.80;6.87;;;8.60;99.90;;;;;;5073220;28;20205;-70
2022/10/15 06:09:19;;;;;;;8.63;5.43;;;8.70;99.90;;;;;;5073131;28;20243;-69
2022/10/15 06:11:46;;;;;;;9.30;5.17;;;8.70;99.90;;;;;;5072944;28;20204;-71
2022/10/15 06:14:13;;;;;;;7.70;4.73;;;8.80;99.90;;;;;;5072831;28;20228;-70
2022/10/15 06:16:41;;;;;;;10.80;4.50;;;8.80;99.90;;;;;;5073100;28;20220;-70
2022/10/15 06:19:08;;;;;;;10.57;4.50;;;8.90;99.90;;;;;;5072674;28;20236;-70
2022/10/15 06:21:35;;;;;;;11.83;5.00;;;9.00;99.90;;;;;;5072519;28;20208;-70
2022/10/15 06:24:02;;;;;;;9.07;4.50;;;9.10;99.90;;;;;;5072641;28;20237;-70
2022/10/15 06:26:28;;;;;;;9.27;4.50;;;9.10;99.90;;;;;;5072978;28;20200;-70
2022/10/15 06:28:55;;;;;;;7.83;4.60;;;9.20;99.90;;;;;;5072724;28;20617;-71
2022/10/15 06:31:22;;;;;;;11.40;5.07;;;9.20;99.90;;;;;;5072707;28;20209;-69
2022/10/15 06:33:50;;;;;;;7.53;4.90;;;9.30;99.90;;;;;;5071715;28;20291;-69
2022/10/15 06:36:17;;;;;;;9.30;4.30;;;9.50;99.90;;;;;;5072549;28;20558;-71
2022/10/15 06:38:44;;;;;;;10.17;4.93;;;9.50;99.90;;;;;;5072528;28;20566;-69
2022/10/15 06:41:11;;;;;;;8.73;5.40;;;9.60;99.90;;;;;;5070543;28;20295;-69
2022/10/15 06:43:38;;;;;;;8.57;5.03;;;9.70;99.90;;;;;;5076720;28;20236;-70
2022/10/15 06:46:06;;;;;;;7.17;4.27;;;9.70;99.90;;;;;;5081647;28;20215;-69
2022/10/15 06:48:33;;;;;;;9.47;4.63;;;9.90;99.90;;;;;;5080557;28;20224;-69
2022/10/15 06:51:02;;;;;;;6.50;4.23;;;9.90;99.90;;;;;;5072240;28;20204;-70
2022/10/15 06:53:30;;;;;;;9.93;4.33;;;10.00;99.90;;;;;;5071707;28;20211;-69
2022/10/15 06:55:57;;;;;;;8.47;4.40;;;10.10;99.90;;;;;;5072375;28;20659;-70
2022/10/15 06:58:24;;;;;;;8.80;4.20;;;10.10;99.90;;;;;;5072763;28;20207;-69
2022/10/15 07:00:51;;;;;;;8.63;4.20;;;10.20;99.90;;;;;;5069801;28;20215;-69
2022/10/15 07:03:18;;;;;;;8.10;4.00;;;10.30;99.90;;;;;;5072623;28;20205;-71
2022/10/15 07:05:45;;;;;;;10.40;4.30;;;10.30;99.90;;;;;;5072168;28;20228;-70
2022/10/15 07:08:13;;;;;;;9.43;4.20;;;10.30;99.90;;;;;;5072252;28;20211;-70
2022/10/15 07:10:40;;;;;;;8.00;4.20;;;10.30;99.90;;;;;;5071898;28;20209;-69
2022/10/15 07:13:07;;;;;;;11.30;4.57;;;10.40;99.90;;;;;;5072272;28;20284;-70
2022/10/15 07:15:33;;;;;;;7.60;4.30;;;10.50;99.90;;;;;;5072207;28;20585;-70
2022/10/15 07:18:01;;;;;;;8.20;3.97;;;10.50;99.90;;;;;;5072193;28;20216;-70
2022/10/15 07:20:28;;;;;;;9.60;4.10;;;10.60;99.90;;;;;;5071745;28;20211;-71
2022/10/15 07:22:57;;;;;;;7.83;4.03;;;10.60;99.90;;;;;;5071757;28;20212;-70
2022/10/15 07:25:25;;;;;;;8.10;4.27;;;10.70;99.90;;;;;;5075666;28;20654;-70
2022/10/15 07:27:54;;;;;;;7.80;3.70;;;10.70;99.90;;;;;;5072991;28;20211;-70
2022/10/15 07:30:21;;;;;;;5.83;3.60;;;10.80;99.90;;;;;;5073340;28;20641;-68
2022/10/15 07:32:48;;;;;;;7.50;3.97;;;10.90;99.90;;;;;;5072052;28;20573;-69
2022/10/15 07:35:15;;;;;;;7.87;3.97;;;10.90;99.90;;;;;;5072197;28;20207;-69
2022/10/15 07:37:42;;;;;;;6.67;3.90;;;11.00;99.90;;;;;;5073439;28;20287;-69
2022/10/15 07:40:10;;;;;;;7.47;3.53;;;11.00;99.90;;;;;;5072891;28;20736;-69
2022/10/15 07:42:39;;;;;;;7.27;3.47;;;11.10;99.90;;;;;;5071903;28;20569;-69
2022/10/15 07:45:07;;;;;;;5.27;3.20;;;11.10;99.90;;;;;;5072496;28;20319;-72
2022/10/15 07:47:34;;;;;;;5.63;3.10;;;11.20;99.90;;;;;;5070842;28;20264;-69
2022/10/15 07:50:00;;;;;;;5.93;3.60;;;11.30;99.90;;;;;;5077031;28;20210;-68
2022/10/15 07:52:27;;;;;;;8.23;3.40;;;11.30;99.90;;;;;;5082662;28;20201;-70
2022/10/15 07:54:54;;;;;;;3.77;2.70;;;11.40;99.90;;;;;;5074111;28;20205;-69
2022/10/15 07:57:21;;;;;;;4.80;2.43;;;11.50;99.90;;;;;;5071228;28;20215;-69
2022/10/15 07:59:49;;;;;;;4.37;2.60;;;11.50;99.90;;;;;;5071357;28;20197;-69
2022/10/15 08:02:16;;;;;;;7.50;3.07;;;11.60;99.90;;;;;;5071279;28;20201;-71
2022/10/15 08:04:43;;;;;;;6.07;2.90;;;11.60;99.90;;;;;;5073438;28;20676;-69
2022/10/15 08:07:10;;;;;;;6.37;2.50;;;11.70;99.90;;;;;;5073615;28;20510;-69
2022/10/15 08:09:37;;;;;;;5.87;2.50;;;11.80;99.90;;;;;;5071481;28;20252;-70
2022/10/15 08:12:05;;;;;;;5.47;2.30;;;11.80;99.90;;;;;;5074905;28;20566;-69
2022/10/15 08:14:32;;;;;;;5.13;2.10;;;11.90;99.90;;;;;;5087575;28;20751;-69
2022/10/15 08:17:01;;;;;;;5.57;2.30;;;11.90;99.90;;;;;;5095854;28;20426;-69
2022/10/15 08:19:28;;;;;;;3.23;2.30;;;11.90;99.90;;;;;;5091771;28;20215;-69
2022/10/15 08:21:55;;;;;;;5.13;2.20;;;12.00;99.90;;;;;;5087432;28;20208;-69
2022/10/15 08:24:22;;;;;;;3.33;2.23;;;12.00;99.90;;;;;;5095231;28;20723;-70
2022/10/15 08:26:49;;;;;;;5.53;2.50;;;12.10;99.90;;;;;;5095002;28;20236;-70
2022/10/15 08:29:16;;;;;;;3.60;2.60;;;12.10;99.90;;;;;;5095047;28;20211;-69
2022/10/15 08:31:43;;;;;;;3.57;2.30;;;12.20;99.90;;;;;;5095113;28;20210;-69
2022/10/15 08:34:11;;;;;;;5.10;2.60;;;12.20;99.90;;;;;;5095942;28;20255;-69
2022/10/15 08:36:38;;;;;;;6.43;2.37;;;12.30;99.90;;;;;;5095476;28;20226;-69
2022/10/15 08:39:06;;;;;;;5.63;2.20;;;12.30;99.90;;;;;;5094975;28;20208;-70
2022/10/15 08:41:37;;;;;;;5.43;2.60;;;12.40;99.90;;;;;;5095427;28;20212;-69
2022/10/15 08:44:05;;;;;;;4.63;2.43;;;12.40;99.90;;;;;;5096077;28;20192;-70
2022/10/15 08:46:38;;;;;;;3.30;2.33;;;12.50;99.90;;;;;;5096318;28;20485;-69
2022/10/15 08:49:05;;;;;;;4.20;2.60;;;12.50;99.90;;;;;;5095219;28;20192;-69
2022/10/15 08:51:40;;;;;;;6.57;2.53;;;12.50;99.90;;;;;;5094726;28;20580;-69
2022/10/15 08:54:13;;;;;;;6.07;2.60;;;12.60;99.90;;;;;;5094782;28;20191;-69
2022/10/15 08:56:43;;;;;;;4.00;2.40;;;12.60;99.90;;;;;;5094956;28;20184;-69
2022/10/15 08:59:24;;;;;;;5.33;2.33;;;12.60;99.90;;;;;;5094643;28;20192;-70
2022/10/15 09:01:55;;;;;;;5.20;2.67;;;12.70;99.90;;;;;;5094588;28;20195;-70
2022/10/15 09:04:30;;;;;;;5.00;2.73;;;12.70;99.90;;;;;;5094511;28;20199;-68
2022/10/15 09:07:03;;;;;;;4.37;2.80;;;12.80;99.90;;;;;;5094464;28;20230;-69
2022/10/15 09:09:40;;;;;;;4.07;2.67;;;12.80;99.90;;;;;;5094599;28;20188;-69
2022/10/15 09:12:20;;;;;;;6.07;2.40;;;12.80;99.90;;;;;;5094440;28;20194;-69
2022/10/15 09:14:48;;;;;;;8.80;2.70;;;12.90;99.90;;;;;;5094972;28;20279;-69
2022/10/15 09:17:20;;;;;;;4.17;2.50;;;12.90;99.90;;;;;;5094053;28;20200;-70
2022/10/15 09:19:51;;;;;;;4.00;3.00;;;12.90;99.90;;;;;;5094795;28;20653;-70
2022/10/15 09:22:25;;;;;;;7.77;3.30;;;13.00;99.90;;;;;;5095122;28;20192;-69
2022/10/15 09:24:52;;;;;;;6.57;3.30;;;13.00;99.90;;;;;;5094065;28;20199;-69
2022/10/15 09:27:29;;;;;;;5.57;2.97;;;13.00;99.90;;;;;;5094583;28;20566;-69
2022/10/15 09:30:04;;;;;;;5.33;2.80;;;13.10;99.90;;;;;;5095139;28;20545;-69
2022/10/15 09:32:37;;;;;;;5.80;2.93;;;13.10;99.90;;;;;;5094626;28;20230;-70
2022/10/15 09:35:13;;;;;;;5.20;2.90;;;13.10;99.90;;;;;;5094909;28;20232;-67
2022/10/15 09:37:49;;;;;;;5.30;2.43;;;13.20;99.90;;;;;;5093923;28;20187;-70
2022/10/15 09:40:31;;;;;;;6.47;2.93;;;13.20;99.90;;;;;;5094076;28;20210;-72
2022/10/15 09:43:00;;;;;;;5.33;2.90;;;13.20;99.90;;;;;;5094327;28;20609;-70
2022/10/15 09:45:27;;;;;;;5.17;2.43;;;13.20;99.90;;;;;;5093703;28;20224;-70
2022/10/15 09:47:59;;;;;;;5.97;2.60;;;13.20;99.90;;;;;;5093174;28;20211;-70
2022/10/15 09:50:31;;;;;;;5.07;2.30;;;13.30;99.90;;;;;;5093768;28;20279;-71
2022/10/15 09:53:12;;;;;;;5.33;2.33;;;13.30;99.90;;;;;;5093967;28;20188;-71
2022/10/15 09:55:45;;;;;;;4.63;2.53;;;13.40;99.90;;;;;;5093902;28;20298;-70
2022/10/15 09:58:16;;;;;;;5.30;2.30;;;13.40;99.90;;;;;;5093564;28;20204;-72
2022/10/15 10:00:56;;;;;;;4.13;2.20;;;13.40;99.90;;;;;;5093341;28;20224;-71
2022/10/15 10:03:24;;;;;;;5.33;2.20;;;13.40;99.90;;;;;;5093420;28;20211;-70
2022/10/15 10:05:59;;;;;;;4.37;2.30;;;13.40;99.90;;;;;;5093603;28;20228;-69
2022/10/15 10:08:32;;;;;;;5.17;2.30;;;13.50;99.90;;;;;;5093190;28;20187;-68
2022/10/15 10:11:00;;;;;;;4.47;2.30;;;13.50;99.90;;;;;;5093394;28;20185;-69
2022/10/15 10:13:31;;;;;;;3.90;2.00;;;13.50;99.90;;;;;;5093490;28;20204;-69
2022/10/15 10:16:03;;;;;;;6.13;2.40;;;13.50;99.90;;;;;;5093236;28;20192;-69
2022/10/15 10:18:31;;;;;;;5.83;2.57;;;13.60;99.90;;;;;;5093854;28;20200;-70
2022/10/15 10:21:00;;;;;;;4.43;2.33;;;13.60;99.90;;;;;;5093327;28;20212;-70
2022/10/15 10:23:33;;;;;;;5.00;2.53;;;13.60;99.90;;;;;;5093294;28;20200;-70
2022/10/15 10:26:01;;;;;;;6.53;2.30;;;13.70;99.90;;;;;;5092987;28;20232;-69
2022/10/15 10:28:34;;;;;;;4.37;2.20;;;13.70;99.90;;;;;;5093305;28;20573;-69
2022/10/15 10:31:03;;;;;;;3.87;2.20;;;13.70;99.90;;;;;;5092606;28;20193;-70
2022/10/15 10:33:35;;;;;;;5.13;2.60;;;13.60;99.90;;;;;;5092819;28;20255;-70
2022/10/15 10:36:02;;;;;;;2.90;2.10;;;13.70;99.90;;;;;;5091939;28;20233;-71
2022/10/15 10:38:33;;;;;;;3.67;2.33;;;13.70;99.90;;;;;;5092973;28;20200;-70
2022/10/15 10:41:05;;;;;;;4.03;2.43;;;13.80;99.90;;;;;;5092682;28;20195;-69
2022/10/15 10:43:34;;;;;;;6.73;3.00;;;13.80;99.90;;;;;;5092544;28;20188;-70
2022/10/15 10:46:03;;;;;;;6.13;2.50;;;13.80;99.90;;;;;;5092602;28;20281;-70
2022/10/15 10:48:38;;;;;;;4.60;2.63;;;13.70;99.90;;;;;;5092489;28;20223;-70
2022/10/15 10:51:12;;;;;;;4.10;2.40;;;13.70;99.90;;;;;;5092451;28;20215;-69
2022/10/15 10:53:48;;;;;;;4.67;2.43;;;13.80;99.90;;;;;;5092922;28;20194;-69
2022/10/15 10:56:20;;;;;;;6.77;2.93;;;13.80;99.90;;;;;;5092721;28;20637;-70
2022/10/15 10:58:47;;;;;;;5.33;2.53;;;13.80;99.90;;;;;;5092712;28;20219;-72
2022/10/15 11:01:15;;;;;;;4.20;2.13;;;13.90;99.90;;;;;;5092581;28;20215;-71
2022/10/15 11:03:45;;;;;;;4.33;2.40;;;13.80;99.90;;;;;;5092230;28;20200;-71
2022/10/15 11:06:24;;;;;;;4.63;2.30;;;13.80;99.90;;;;;;5091901;28;20224;-71
2022/10/15 11:09:04;;;;;;;6.47;2.80;;;13.90;99.90;;;;;;5085245;28;20197;-72
2022/10/15 11:11:38;;;;;;;8.23;2.20;;;13.90;99.90;;;;;;5083614;28;20210;-72
2022/10/15 11:14:16;;;;;;;5.50;2.33;;;13.90;99.90;;;;;;5091884;28;20192;-71
2022/10/15 11:16:49;;;;;;;5.23;2.57;;;13.90;99.90;;;;;;5081153;28;20196;-73
2022/10/15 11:19:26;;;;;;;3.60;2.10;;;13.90;99.90;;;;;;5072240;28;20618;-72
2022/10/15 11:22:18;;;;;;;5.43;2.90;;;14.00;99.90;;;;;;5071749;28;20228;-70
2022/10/15 11:24:58;;;;;;;4.63;2.57;;;14.00;99.90;;;;;;5073832;28;20283;-70
2022/10/15 11:27:46;;;;;;;4.00;2.30;;;14.00;99.90;;;;;;5092135;28;20216;-73
2022/10/15 11:30:26;;;;;;;4.87;2.37;;;14.00;99.90;;;;;;5091996;28;20192;-73
2022/10/15 11:33:02;;;;;;;6.20;2.70;;;14.00;99.90;;;;;;5092188;28;20200;-70
2022/10/15 11:35:41;;;;;;;3.93;2.30;;;14.00;99.90;;;;;;5085178;28;20207;-71
2022/10/15 11:38:19;;;;;;;6.53;2.23;;;14.10;99.90;;;;;;5071830;28;20662;-70
2022/10/15 11:40:59;;;;;;;3.27;2.30;;;14.10;99.90;;;;;;5071664;28;20219;-71
2022/10/15 11:43:40;;;;;;;3.27;2.00;;;14.10;99.90;;;;;;5072011;28;20561;-70
2022/10/15 11:46:14;;;;;;;6.55;2.58;;;14.10;99.90;;;;;;5071020;28;20444;-70
2022/10/15 11:48:56;;;;;;;4.60;2.40;;;14.10;99.90;;;;;;5074979;28;20336;-70
2022/10/15 11:51:31;;;;;;;4.70;2.70;;;14.10;99.90;;;;;;5075780;28;20189;-69
2022/10/15 11:54:15;;;;;;;3.97;2.33;;;14.10;99.90;;;;;;5075107;28;20188;-69
2022/10/15 11:56:47;;;;;;;3.53;2.40;;;14.10;99.90;;;;;;5076011;28;20624;-70
2022/10/15 11:59:27;;;;;;;5.23;2.50;;;14.20;99.90;;;;;;5078685;28;20297;-68
2022/10/15 12:01:59;;;;;;;4.03;2.70;;;14.10;99.90;;;;;;5075980;28;20208;-68
2022/10/15 12:17:30;;;;;;;4.50;2.47;;;14.10;99.90;;;;;;5149642;27;20527;-75
2022/10/15 12:20:06;;;;;;;5.23;2.70;;;14.20;99.90;;;;;;5150665;27;20190;-67
2022/10/15 12:22:37;;;;;;;3.27;2.30;;;14.20;99.90;;;;;;5150252;27;20186;-67
2022/10/15 12:25:05;;;;;;;4.77;2.30;;;14.20;99.90;;;;;;5150305;27;20701;-70
2022/10/15 12:27:35;;;;;;;5.30;2.80;;;14.20;99.90;;;;;;5150029;27;20202;-70
2022/10/15 12:30:33;;;;;;;7.60;3.30;;;14.20;99.90;;;;;;5129844;28;20237;-70
2022/10/15 12:33:02;;;;;;;7.80;3.10;;;14.20;99.90;;;;;;5092267;27;20205;-68
2022/10/15 12:35:36;;;;;;;4.67;2.53;;;14.20;99.90;;;;;;5149208;27;20206;-71
2022/10/15 12:38:21;;;;;;;3.87;2.43;;;14.20;99.90;;;;;;5144317;27;20707;-69
2022/10/15 12:40:57;;;;;;;6.30;3.53;;;14.20;99.90;;;;;;5144726;27;20202;-69
2022/10/15 12:43:24;;;;;;;8.47;3.20;;;14.20;99.90;;;;;;5109541;28;20223;-68
2022/10/15 12:45:53;;;;;;;5.07;3.00;;;14.10;99.90;;;;;;5124645;28;20311;-68
2022/10/15 12:48:30;;;;;;;5.50;3.17;;;14.10;99.90;;;;;;5128679;28;20213;-72
2022/10/15 12:51:29;;;;;;;6.13;3.30;;;14.10;99.90;;;;;;5123222;28;20211;-69
2022/10/15 12:53:59;;;;;;;4.90;2.80;;;14.00;99.90;;;;;;5127573;28;20221;-69
2022/10/15 12:56:37;;;;;;;5.40;2.87;;;14.10;99.90;;;;;;5117131;28;20649;-68
2022/10/15 12:59:04;;;;;;;5.63;3.00;;;14.00;99.90;;;;;;5125329;28;20207;-69
2022/10/15 13:01:50;;;;;;;7.30;2.83;;;14.00;99.90;;;;;;5128590;28;20267;-69
2022/10/15 13:04:19;;;;;;;7.87;2.90;;;14.00;99.90;;;;;;5129375;28;20221;-68
2022/10/15 13:06:47;;;;;;;8.40;3.10;;;14.00;99.90;;;;;;5129042;28;20227;-69
2022/10/15 13:09:37;;;;;;;4.63;2.93;;;14.00;99.90;;;;;;5129194;28;20552;-68
2022/10/15 13:12:04;;;;;;;5.37;3.30;;;13.90;99.90;;;;;;5108271;28;20198;-69
2022/10/15 13:14:35;;;;;;;4.90;2.87;;;13.90;99.90;;;;;;5129142;28;20370;-69
2022/10/15 13:17:05;;;;;;;4.10;2.50;;;14.00;99.90;;;;;;5121913;28;20231;-70